sensor_id;sensor_type;location;lat;lon;timestamp;temperature;humidity
54082;DHT22;39986;50.770;0.266;2023-03-22T00:01:07;10.60;99.90
54082;DHT22;39986;50.770;0.266;2023-03-22T00:03:33;10.60;99.90
54082;DHT22;39986;50.770;0.266;2023-03-22T00:05:58;10.60;99.90
54082;DHT22;39986;50.770;0.266;2023-03-22T00:08:24;10.60;99.90
54082;DHT22;39986;50.770;0.266;2023-03-22T00:10:49;10.60;99.90
54082;DHT22;39986;50.770;0.266;2023-03-22T00:13:15;10.60;99.90
54082;DHT22;39986;50.770;0.266;2023-03-22T00:15:41;10.50;99.90
54082;DHT22;39986;50.770;0.266;2023-03-22T00:18:09;10.60;99.90
54082;DHT22;39986;50.770;0.266;2023-03-22T00:20:36;10.60;99.90
54082;DHT22;39986;50.770;0.266;2023-03-22T00:23:03;10.60;99.90
54082;DHT22;39986;50.770;0.266;2023-03-22T00:25:29;10.60;99.90
54082;DHT22;39986;50.770;0.266;2023-03-22T00:27:55;10.70;99.90
54082;DHT22;39986;50.770;0.266;2023-03-22T00:30:20;10.70;99.90
54082;DHT22;39986;50.770;0.266;2023-03-22T00:32:46;10.70;99.90
54082;DHT22;39986;50.770;0.266;2023-03-22T00:35:11;10.70;99.90
54082;DHT22;39986;50.770;0.266;2023-03-22T00:37:37;10.70;99.90
54082;DHT22;39986;50.770;0.266;2023-03-22T00:40:07;10.60;99.90
54082;DHT22;39986;50.770;0.266;2023-03-22T00:42:36;10.70;99.90
54082;DHT22;39986;50.770;0.266;2023-03-22T00:45:02;10.70;99.90
54082;DHT22;39986;50.770;0.266;2023-03-22T00:47:28;10.60;99.90
54082;DHT22;39986;50.770;0.266;2023-03-22T00:49:53;10.70;99.90
54082;DHT22;39986;50.770;0.266;2023-03-22T00:52:19;10.70;99.90
54082;DHT22;39986;50.770;0.266;2023-03-22T00:54:45;10.60;99.90
54082;DHT22;39986;50.770;0.266;2023-03-22T00:57:12;10.60;99.90
54082;DHT22;39986;50.770;0.266;2023-03-22T00:59:38;10.60;99.90
54082;DHT22;39986;50.770;0.266;2023-03-22T01:02:04;10.50;99.90
54082;DHT22;39986;50.770;0.266;2023-03-22T01:04:30;10.60;99.90
54082;DHT22;39986;50.770;0.266;2023-03-22T01:06:56;10.50;99.90
54082;DHT22;39986;50.770;0.266;2023-03-22T01:09:28;10.50;99.90
54082;DHT22;39986;50.770;0.266;2023-03-22T01:11:55;10.50;99.90
54082;DHT22;39986;50.770;0.266;2023-03-22T01:14:22;10.50;99.90
54082;DHT22;39986;50.770;0.266;2023-03-22T01:16:48;10.50;99.90
54082;DHT22;39986;50.770;0.266;2023-03-22T01:19:14;10.50;99.90
54082;DHT22;39986;50.770;0.266;2023-03-22T01:21:40;10.50;99.90
54082;DHT22;39986;50.770;0.266;2023-03-22T01:24:05;10.50;99.90
54082;DHT22;39986;50.770;0.266;2023-03-22T01:26:31;10.50;99.90
54082;DHT22;39986;50.770;0.266;2023-03-22T01:28:56;10.60;99.90
54082;DHT22;39986;50.770;0.266;2023-03-22T01:31:22;10.50;99.90
54082;DHT22;39986;50.770;0.266;2023-03-22T01:33:47;10.50;99.90
54082;DHT22;39986;50.770;0.266;2023-03-22T01:36:13;10.50;99.90
54082;DHT22;39986;50.770;0.266;2023-03-22T01:38:38;10.50;99.90
54082;DHT22;39986;50.770;0.266;2023-03-22T01:41:04;10.50;99.90
54082;DHT22;39986;50.770;0.266;2023-03-22T01:43:30;10.50;99.90
54082;DHT22;39986;50.770;0.266;2023-03-22T01:45:55;10.50;99.90
54082;DHT22;39986;50.770;0.266;2023-03-22T01:51:06;10.40;99.90
54082;DHT22;39986;50.770;0.266;2023-03-22T01:53:34;10.40;99.90
54082;DHT22;39986;50.770;0.266;2023-03-22T01:56:00;10.40;99.90
54082;DHT22;39986;50.770;0.266;2023-03-22T01:58:26;10.40;99.90
54082;DHT22;39986;50.770;0.266;2023-03-22T02:00:52;10.40;99.90
54082;DHT22;39986;50.770;0.266;2023-03-22T02:03:24;10.40;99.90
54082;DHT22;39986;50.770;0.266;2023-03-22T02:05:51;10.40;99.90
54082;DHT22;39986;50.770;0.266;2023-03-22T02:08:18;10.40;99.90
54082;DHT22;39986;50.770;0.266;2023-03-22T02:10:44;10.40;99.90
54082;DHT22;39986;50.770;0.266;2023-03-22T02:15:49;10.40;99.90
54082;DHT22;39986;50.770;0.266;2023-03-22T02:18:37;10.40;99.90
54082;DHT22;39986;50.770;0.266;2023-03-22T02:21:12;10.40;99.90
54082;DHT22;39986;50.770;0.266;2023-03-22T02:28:55;10.40;99.90
54082;DHT22;39986;50.770;0.266;2023-03-22T02:34:17;10.40;99.90
54082;DHT22;39986;50.770;0.266;2023-03-22T02:47:12;10.40;99.90
54082;DHT22;39986;50.770;0.266;2023-03-22T02:50:21;10.40;99.90
54082;DHT22;39986;50.770;0.266;2023-03-22T03:00:33;10.40;99.90
54082;DHT22;39986;50.770;0.266;2023-03-22T03:03:02;10.30;99.90
54082;DHT22;39986;50.770;0.266;2023-03-22T03:05:36;10.50;99.90
54082;DHT22;39986;50.770;0.266;2023-03-22T03:08:03;10.40;99.90
54082;DHT22;39986;50.770;0.266;2023-03-22T03:10:30;10.30;99.90
54082;DHT22;39986;50.770;0.266;2023-03-22T03:12:57;10.30;99.90
54082;DHT22;39986;50.770;0.266;2023-03-22T03:15:22;10.20;99.90
54082;DHT22;39986;50.770;0.266;2023-03-22T03:25:27;10.10;99.90
54082;DHT22;39986;50.770;0.266;2023-03-22T03:28:01;10.20;99.90
54082;DHT22;39986;50.770;0.266;2023-03-22T03:30:41;10.10;99.90
54082;DHT22;39986;50.770;0.266;2023-03-22T03:33:11;10.10;99.90
54082;DHT22;39986;50.770;0.266;2023-03-22T03:35:40;10.10;99.90
54082;DHT22;39986;50.770;0.266;2023-03-22T03:38:11;10.20;99.90
54082;DHT22;39986;50.770;0.266;2023-03-22T03:40:39;10.10;99.90
54082;DHT22;39986;50.770;0.266;2023-03-22T03:43:06;10.20;99.90
54082;DHT22;39986;50.770;0.266;2023-03-22T03:45:32;10.00;99.90
54082;DHT22;39986;50.770;0.266;2023-03-22T03:48:03;10.00;99.90
54082;DHT22;39986;50.770;0.266;2023-03-22T03:50:29;10.00;99.90
54082;DHT22;39986;50.770;0.266;2023-03-22T03:52:55;10.00;99.90
54082;DHT22;39986;50.770;0.266;2023-03-22T03:55:21;10.00;99.90
54082;DHT22;39986;50.770;0.266;2023-03-22T03:57:47;9.90;99.90
54082;DHT22;39986;50.770;0.266;2023-03-22T04:00:13;10.00;99.90
54082;DHT22;39986;50.770;0.266;2023-03-22T04:02:39;10.00;99.90
54082;DHT22;39986;50.770;0.266;2023-03-22T04:05:05;9.90;99.90
54082;DHT22;39986;50.770;0.266;2023-03-22T04:07:32;9.90;99.90
54082;DHT22;39986;50.770;0.266;2023-03-22T04:09:58;10.00;99.90
54082;DHT22;39986;50.770;0.266;2023-03-22T04:12:23;9.90;99.90
54082;DHT22;39986;50.770;0.266;2023-03-22T04:14:49;10.10;99.90
54082;DHT22;39986;50.770;0.266;2023-03-22T04:17:14;9.80;99.90
54082;DHT22;39986;50.770;0.266;2023-03-22T04:19:40;9.90;99.90
54082;DHT22;39986;50.770;0.266;2023-03-22T04:22:06;9.90;99.90
54082;DHT22;39986;50.770;0.266;2023-03-22T04:24:39;9.80;99.90
54082;DHT22;39986;50.770;0.266;2023-03-22T04:27:06;9.80;99.90
54082;DHT22;39986;50.770;0.266;2023-03-22T04:29:32;9.80;99.90
54082;DHT22;39986;50.770;0.266;2023-03-22T04:32:01;9.80;99.90
54082;DHT22;39986;50.770;0.266;2023-03-22T04:34:27;9.80;99.90
54082;DHT22;39986;50.770;0.266;2023-03-22T04:36:52;9.80;99.90
54082;DHT22;39986;50.770;0.266;2023-03-22T04:39:18;9.80;99.90
54082;DHT22;39986;50.770;0.266;2023-03-22T04:41:44;9.80;99.90
54082;DHT22;39986;50.770;0.266;2023-03-22T04:44:09;9.80;99.90
54082;DHT22;39986;50.770;0.266;2023-03-22T04:46:35;9.70;99.90
54082;DHT22;39986;50.770;0.266;2023-03-22T04:49:00;9.80;99.90
54082;DHT22;39986;50.770;0.266;2023-03-22T04:51:26;9.80;99.90
54082;DHT22;39986;50.770;0.266;2023-03-22T04:53:52;9.80;99.90
54082;DHT22;39986;50.770;0.266;2023-03-22T04:56:17;9.90;99.90
54082;DHT22;39986;50.770;0.266;2023-03-22T04:58:43;9.70;99.90
54082;DHT22;39986;50.770;0.266;2023-03-22T05:01:10;9.80;99.90
54082;DHT22;39986;50.770;0.266;2023-03-22T05:03:35;9.80;99.90
54082;DHT22;39986;50.770;0.266;2023-03-22T05:06:02;9.70;99.90
54082;DHT22;39986;50.770;0.266;2023-03-22T05:08:28;9.70;99.90
54082;DHT22;39986;50.770;0.266;2023-03-22T05:10:55;9.70;99.90
54082;DHT22;39986;50.770;0.266;2023-03-22T05:13:21;9.70;99.90
54082;DHT22;39986;50.770;0.266;2023-03-22T05:15:47;9.80;99.90
54082;DHT22;39986;50.770;0.266;2023-03-22T05:18:16;9.80;99.90
54082;DHT22;39986;50.770;0.266;2023-03-22T05:20:42;9.80;99.90
54082;DHT22;39986;50.770;0.266;2023-03-22T05:23:08;9.70;99.90
54082;DHT22;39986;50.770;0.266;2023-03-22T05:25:34;9.80;99.90
54082;DHT22;39986;50.770;0.266;2023-03-22T05:28:00;9.70;99.90
54082;DHT22;39986;50.770;0.266;2023-03-22T05:30:29;9.80;99.90
54082;DHT22;39986;50.770;0.266;2023-03-22T05:32:56;9.70;99.90
54082;DHT22;39986;50.770;0.266;2023-03-22T05:35:22;9.80;99.90
54082;DHT22;39986;50.770;0.266;2023-03-22T05:37:47;9.70;99.90
54082;DHT22;39986;50.770;0.266;2023-03-22T05:40:13;9.70;99.90
54082;DHT22;39986;50.770;0.266;2023-03-22T05:42:39;9.80;99.90
54082;DHT22;39986;50.770;0.266;2023-03-22T05:45:04;9.70;99.90
54082;DHT22;39986;50.770;0.266;2023-03-22T05:47:30;9.80;99.90
54082;DHT22;39986;50.770;0.266;2023-03-22T05:49:56;9.80;99.90
54082;DHT22;39986;50.770;0.266;2023-03-22T05:52:21;9.70;99.90
54082;DHT22;39986;50.770;0.266;2023-03-22T05:54:47;9.80;99.90
54082;DHT22;39986;50.770;0.266;2023-03-22T05:57:12;9.70;99.90
54082;DHT22;39986;50.770;0.266;2023-03-22T05:59:38;9.80;99.90
54082;DHT22;39986;50.770;0.266;2023-03-22T06:02:03;9.70;99.90
54082;DHT22;39986;50.770;0.266;2023-03-22T06:04:29;9.90;99.90
54082;DHT22;39986;50.770;0.266;2023-03-22T06:06:54;9.80;99.90
54082;DHT22;39986;50.770;0.266;2023-03-22T06:09:20;9.80;99.90
54082;DHT22;39986;50.770;0.266;2023-03-22T06:11:46;9.90;99.90
54082;DHT22;39986;50.770;0.266;2023-03-22T06:14:11;9.80;99.90
54082;DHT22;39986;50.770;0.266;2023-03-22T06:16:37;9.70;99.90
54082;DHT22;39986;50.770;0.266;2023-03-22T06:19:02;9.80;99.90
54082;DHT22;39986;50.770;0.266;2023-03-22T06:21:28;9.80;99.90
54082;DHT22;39986;50.770;0.266;2023-03-22T06:23:53;9.80;99.90
54082;DHT22;39986;50.770;0.266;2023-03-22T06:26:19;9.80;99.90
54082;DHT22;39986;50.770;0.266;2023-03-22T06:28:44;9.80;99.90
54082;DHT22;39986;50.770;0.266;2023-03-22T06:31:10;9.70;99.90
54082;DHT22;39986;50.770;0.266;2023-03-22T06:33:36;9.70;99.90
54082;DHT22;39986;50.770;0.266;2023-03-22T06:36:02;9.80;99.90
54082;DHT22;39986;50.770;0.266;2023-03-22T06:38:28;9.70;99.90
54082;DHT22;39986;50.770;0.266;2023-03-22T06:40:53;9.80;99.90
54082;DHT22;39986;50.770;0.266;2023-03-22T06:43:19;9.70;99.90
54082;DHT22;39986;50.770;0.266;2023-03-22T06:45:45;9.70;99.90
54082;DHT22;39986;50.770;0.266;2023-03-22T06:48:10;9.70;99.90
54082;DHT22;39986;50.770;0.266;2023-03-22T06:50:36;9.70;99.90
54082;DHT22;39986;50.770;0.266;2023-03-22T06:53:03;9.70;99.90
54082;DHT22;39986;50.770;0.266;2023-03-22T06:55:29;9.70;99.90
54082;DHT22;39986;50.770;0.266;2023-03-22T06:58:01;9.70;99.90
54082;DHT22;39986;50.770;0.266;2023-03-22T07:00:27;9.70;99.90
54082;DHT22;39986;50.770;0.266;2023-03-22T07:02:53;9.70;99.90
54082;DHT22;39986;50.770;0.266;2023-03-22T07:05:19;9.70;99.90
54082;DHT22;39986;50.770;0.266;2023-03-22T07:07:44;9.70;99.90
54082;DHT22;39986;50.770;0.266;2023-03-22T07:10:10;9.80;99.90
54082;DHT22;39986;50.770;0.266;2023-03-22T07:12:36;9.80;99.90
54082;DHT22;39986;50.770;0.266;2023-03-22T07:15:02;9.70;99.90
54082;DHT22;39986;50.770;0.266;2023-03-22T07:17:27;9.80;99.90
54082;DHT22;39986;50.770;0.266;2023-03-22T07:19:53;9.80;99.90
54082;DHT22;39986;50.770;0.266;2023-03-22T07:22:19;9.80;99.90
54082;DHT22;39986;50.770;0.266;2023-03-22T07:24:49;9.80;99.90
54082;DHT22;39986;50.770;0.266;2023-03-22T07:27:15;9.80;99.90
54082;DHT22;39986;50.770;0.266;2023-03-22T07:29:41;9.80;99.90
54082;DHT22;39986;50.770;0.266;2023-03-22T07:32:06;9.90;99.90
54082;DHT22;39986;50.770;0.266;2023-03-22T07:34:32;9.80;99.90
54082;DHT22;39986;50.770;0.266;2023-03-22T07:36:58;9.90;99.90
54082;DHT22;39986;50.770;0.266;2023-03-22T07:39:23;9.90;99.90
54082;DHT22;39986;50.770;0.266;2023-03-22T07:41:49;9.90;99.90
54082;DHT22;39986;50.770;0.266;2023-03-22T07:44:15;10.00;99.90
54082;DHT22;39986;50.770;0.266;2023-03-22T07:46:41;10.00;99.90
54082;DHT22;39986;50.770;0.266;2023-03-22T07:49:06;10.00;99.90
54082;DHT22;39986;50.770;0.266;2023-03-22T07:51:32;10.00;99.90
54082;DHT22;39986;50.770;0.266;2023-03-22T07:53:57;10.10;99.90
54082;DHT22;39986;50.770;0.266;2023-03-22T07:56:23;10.10;99.90
54082;DHT22;39986;50.770;0.266;2023-03-22T07:58:48;10.10;99.90
54082;DHT22;39986;50.770;0.266;2023-03-22T08:01:14;10.10;99.90
54082;DHT22;39986;50.770;0.266;2023-03-22T08:03:40;10.20;99.90
54082;DHT22;39986;50.770;0.266;2023-03-22T08:06:06;10.10;99.90
54082;DHT22;39986;50.770;0.266;2023-03-22T08:08:32;10.20;99.90
54082;DHT22;39986;50.770;0.266;2023-03-22T08:10:57;10.30;99.90
54082;DHT22;39986;50.770;0.266;2023-03-22T08:13:23;10.30;99.90
54082;DHT22;39986;50.770;0.266;2023-03-22T08:15:48;10.20;99.90
54082;DHT22;39986;50.770;0.266;2023-03-22T08:18:14;10.20;99.90
54082;DHT22;39986;50.770;0.266;2023-03-22T08:20:40;10.20;99.90
54082;DHT22;39986;50.770;0.266;2023-03-22T08:23:06;10.20;99.90
54082;DHT22;39986;50.770;0.266;2023-03-22T08:25:35;10.30;99.90
54082;DHT22;39986;50.770;0.266;2023-03-22T08:28:01;10.30;99.90
54082;DHT22;39986;50.770;0.266;2023-03-22T08:30:26;10.30;99.90
54082;DHT22;39986;50.770;0.266;2023-03-22T08:32:52;10.40;99.90
54082;DHT22;39986;50.770;0.266;2023-03-22T08:35:18;10.40;99.90
54082;DHT22;39986;50.770;0.266;2023-03-22T08:37:43;10.40;99.90
54082;DHT22;39986;50.770;0.266;2023-03-22T08:40:09;10.40;99.90
54082;DHT22;39986;50.770;0.266;2023-03-22T08:42:35;10.40;99.90
54082;DHT22;39986;50.770;0.266;2023-03-22T08:45:01;10.40;99.90
54082;DHT22;39986;50.770;0.266;2023-03-22T08:47:26;10.40;99.90
54082;DHT22;39986;50.770;0.266;2023-03-22T08:49:52;10.40;99.90
54082;DHT22;39986;50.770;0.266;2023-03-22T08:52:18;10.40;99.90
54082;DHT22;39986;50.770;0.266;2023-03-22T08:54:43;10.50;99.90
54082;DHT22;39986;50.770;0.266;2023-03-22T08:57:09;10.40;99.90
54082;DHT22;39986;50.770;0.266;2023-03-22T08:59:35;10.40;99.90
54082;DHT22;39986;50.770;0.266;2023-03-22T09:02:00;10.40;99.90
54082;DHT22;39986;50.770;0.266;2023-03-22T09:04:26;10.40;99.90
54082;DHT22;39986;50.770;0.266;2023-03-22T09:06:51;10.40;99.90
54082;DHT22;39986;50.770;0.266;2023-03-22T09:09:17;10.40;99.90
54082;DHT22;39986;50.770;0.266;2023-03-22T09:11:42;10.60;99.90
54082;DHT22;39986;50.770;0.266;2023-03-22T09:14:09;10.50;99.90
54082;DHT22;39986;50.770;0.266;2023-03-22T09:16:35;10.50;99.90
54082;DHT22;39986;50.770;0.266;2023-03-22T09:19:00;10.60;99.90
54082;DHT22;39986;50.770;0.266;2023-03-22T09:21:26;10.60;99.90
54082;DHT22;39986;50.770;0.266;2023-03-22T09:23:54;10.60;99.90
54082;DHT22;39986;50.770;0.266;2023-03-22T09:26:19;10.60;99.90
54082;DHT22;39986;50.770;0.266;2023-03-22T09:28:47;10.70;99.90
54082;DHT22;39986;50.770;0.266;2023-03-22T09:31:12;10.60;99.90
54082;DHT22;39986;50.770;0.266;2023-03-22T09:33:38;10.70;99.90
54082;DHT22;39986;50.770;0.266;2023-03-22T09:36:06;10.70;99.90
54082;DHT22;39986;50.770;0.266;2023-03-22T09:38:31;10.70;99.90
54082;DHT22;39986;50.770;0.266;2023-03-22T09:41:04;10.80;99.90
54082;DHT22;39986;50.770;0.266;2023-03-22T09:43:33;10.80;99.90
54082;DHT22;39986;50.770;0.266;2023-03-22T09:46:00;10.80;99.90
54082;DHT22;39986;50.770;0.266;2023-03-22T09:48:26;10.80;99.90
54082;DHT22;39986;50.770;0.266;2023-03-22T09:50:53;10.80;99.90
54082;DHT22;39986;50.770;0.266;2023-03-22T09:53:19;10.80;99.90
54082;DHT22;39986;50.770;0.266;2023-03-22T09:55:55;10.80;99.90
54082;DHT22;39986;50.770;0.266;2023-03-22T10:00:55;10.80;99.90
54082;DHT22;39986;50.770;0.266;2023-03-22T10:06:07;10.70;99.90
54082;DHT22;39986;50.770;0.266;2023-03-22T10:11:08;10.70;99.90
54082;DHT22;39986;50.770;0.266;2023-03-22T10:13:50;10.70;99.90
54082;DHT22;39986;50.770;0.266;2023-03-22T10:16:24;10.70;99.90
54082;DHT22;39986;50.770;0.266;2023-03-22T10:18:51;10.80;99.90
54082;DHT22;39986;50.770;0.266;2023-03-22T10:21:18;10.80;99.90
54082;DHT22;39986;50.770;0.266;2023-03-22T10:23:45;10.80;99.90
54082;DHT22;39986;50.770;0.266;2023-03-22T10:26:28;10.70;99.90
54082;DHT22;39986;50.770;0.266;2023-03-22T10:28:56;10.70;99.90
54082;DHT22;39986;50.770;0.266;2023-03-22T10:31:23;10.70;99.90
54082;DHT22;39986;50.770;0.266;2023-03-22T10:33:51;10.70;99.90
54082;DHT22;39986;50.770;0.266;2023-03-22T10:36:21;10.70;99.90
54082;DHT22;39986;50.770;0.266;2023-03-22T10:38:52;10.60;99.90
54082;DHT22;39986;50.770;0.266;2023-03-22T10:41:19;10.60;99.90
54082;DHT22;39986;50.770;0.266;2023-03-22T10:43:51;10.50;99.90
54082;DHT22;39986;50.770;0.266;2023-03-22T10:46:18;10.50;99.90
54082;DHT22;39986;50.770;0.266;2023-03-22T10:48:45;10.50;99.90
54082;DHT22;39986;50.770;0.266;2023-03-22T10:51:24;10.50;99.90
54082;DHT22;39986;50.770;0.266;2023-03-22T10:53:50;10.60;99.90
54082;DHT22;39986;50.770;0.266;2023-03-22T10:56:18;10.60;99.90
54082;DHT22;39986;50.770;0.266;2023-03-22T10:58:44;10.60;99.90
54082;DHT22;39986;50.770;0.266;2023-03-22T11:01:11;10.60;99.90
54082;DHT22;39986;50.770;0.266;2023-03-22T11:03:41;10.70;99.90
54082;DHT22;39986;50.770;0.266;2023-03-22T11:06:14;10.70;99.90
54082;DHT22;39986;50.770;0.266;2023-03-22T11:11:06;10.70;99.90
54082;DHT22;39986;50.770;0.266;2023-03-22T11:13:32;10.80;99.90
54082;DHT22;39986;50.770;0.266;2023-03-22T11:15:58;10.70;99.90
54082;DHT22;39986;50.770;0.266;2023-03-22T11:18:30;10.80;99.90
54082;DHT22;39986;50.770;0.266;2023-03-22T11:20:57;10.80;99.90
54082;DHT22;39986;50.770;0.266;2023-03-22T11:23:24;10.70;99.90
54082;DHT22;39986;50.770;0.266;2023-03-22T11:25:50;10.70;99.90
54082;DHT22;39986;50.770;0.266;2023-03-22T11:31:15;10.70;99.90
54082;DHT22;39986;50.770;0.266;2023-03-22T11:33:44;10.70;99.90
54082;DHT22;39986;50.770;0.266;2023-03-22T11:36:17;10.80;99.90
54082;DHT22;39986;50.770;0.266;2023-03-22T11:38:43;10.70;99.90
54082;DHT22;39986;50.770;0.266;2023-03-22T11:41:22;10.80;99.90
54082;DHT22;39986;50.770;0.266;2023-03-22T11:43:55;10.70;99.90
54082;DHT22;39986;50.770;0.266;2023-03-22T11:46:22;10.80;99.90
54082;DHT22;39986;50.770;0.266;2023-03-22T11:48:49;10.80;99.90
54082;DHT22;39986;50.770;0.266;2023-03-22T11:51:17;10.80;99.90
54082;DHT22;39986;50.770;0.266;2023-03-22T11:53:46;10.80;99.90
54082;DHT22;39986;50.770;0.266;2023-03-22T11:56:16;10.70;99.90
54082;DHT22;39986;50.770;0.266;2023-03-22T12:01:17;10.80;99.90
54082;DHT22;39986;50.770;0.266;2023-03-22T12:03:45;10.80;99.90
54082;DHT22;39986;50.770;0.266;2023-03-22T12:06:26;10.90;99.90
54082;DHT22;39986;50.770;0.266;2023-03-22T12:09:02;10.80;99.90
54082;DHT22;39986;50.770;0.266;2023-03-22T12:11:32;10.80;99.90
54082;DHT22;39986;50.770;0.266;2023-03-22T12:14:02;10.90;99.90
54082;DHT22;39986;50.770;0.266;2023-03-22T12:16:35;10.80;99.90
54082;DHT22;39986;50.770;0.266;2023-03-22T12:19:21;10.80;99.90
54082;DHT22;39986;50.770;0.266;2023-03-22T12:21:48;10.80;99.90
54082;DHT22;39986;50.770;0.266;2023-03-22T12:24:32;10.80;99.90
54082;DHT22;39986;50.770;0.266;2023-03-22T12:26:59;10.80;99.90
54082;DHT22;39986;50.770;0.266;2023-03-22T12:29:26;10.90;99.90
54082;DHT22;39986;50.770;0.266;2023-03-22T12:32:01;10.90;99.90
54082;DHT22;39986;50.770;0.266;2023-03-22T12:35:00;10.90;99.90
54082;DHT22;39986;50.770;0.266;2023-03-22T12:37:26;10.90;99.90
54082;DHT22;39986;50.770;0.266;2023-03-22T12:39:57;10.80;99.90
54082;DHT22;39986;50.770;0.266;2023-03-22T12:43:08;10.80;99.90
54082;DHT22;39986;50.770;0.266;2023-03-22T12:45:13;10.90;99.90
54082;DHT22;39986;50.770;0.266;2023-03-22T12:47:45;10.90;99.90
54082;DHT22;39986;50.770;0.266;2023-03-22T12:50:19;10.80;99.90
54082;DHT22;39986;50.770;0.266;2023-03-22T12:52:50;10.90;99.90
54082;DHT22;39986;50.770;0.266;2023-03-22T12:55:24;10.90;99.90
54082;DHT22;39986;50.770;0.266;2023-03-22T12:57:51;10.80;99.90
54082;DHT22;39986;50.770;0.266;2023-03-22T13:01:05;10.90;99.90
54082;DHT22;39986;50.770;0.266;2023-03-22T13:03:06;10.90;99.90
54082;DHT22;39986;50.770;0.266;2023-03-22T13:05:33;10.90;99.90
54082;DHT22;39986;50.770;0.266;2023-03-22T13:08:00;10.90;99.90
54082;DHT22;39986;50.770;0.266;2023-03-22T13:15:34;11.10;99.90
54082;DHT22;39986;50.770;0.266;2023-03-22T13:18:00;11.00;99.90
54082;DHT22;39986;50.770;0.266;2023-03-22T13:20:26;11.00;99.90
54082;DHT22;39986;50.770;0.266;2023-03-22T13:30:51;11.20;99.90
54082;DHT22;39986;50.770;0.266;2023-03-22T13:33:11;11.20;99.90
54082;DHT22;39986;50.770;0.266;2023-03-22T13:40:55;11.40;99.90
54082;DHT22;39986;50.770;0.266;2023-03-22T13:46:12;11.70;99.90
54082;DHT22;39986;50.770;0.266;2023-03-22T13:48:39;11.80;99.90
54082;DHT22;39986;50.770;0.266;2023-03-22T13:53:36;11.90;99.90
54082;DHT22;39986;50.770;0.266;2023-03-22T13:56:05;11.80;99.90
54082;DHT22;39986;50.770;0.266;2023-03-22T14:01:13;11.90;99.90
54082;DHT22;39986;50.770;0.266;2023-03-22T14:03:40;12.10;99.90
54082;DHT22;39986;50.770;0.266;2023-03-22T14:06:10;12.00;99.90
54082;DHT22;39986;50.770;0.266;2023-03-22T14:08:38;12.20;99.90
54082;DHT22;39986;50.770;0.266;2023-03-22T14:11:15;12.30;99.90
54082;DHT22;39986;50.770;0.266;2023-03-22T14:13:45;12.20;99.90
54082;DHT22;39986;50.770;0.266;2023-03-22T14:16:30;12.20;99.90
54082;DHT22;39986;50.770;0.266;2023-03-22T14:18:58;12.10;99.90
54082;DHT22;39986;50.770;0.266;2023-03-22T14:21:30;11.90;99.90
54082;DHT22;39986;50.770;0.266;2023-03-22T14:23:57;11.90;99.90
54082;DHT22;39986;50.770;0.266;2023-03-22T14:26:25;11.90;99.90
54082;DHT22;39986;50.770;0.266;2023-03-22T14:28:51;11.80;99.90
54082;DHT22;39986;50.770;0.266;2023-03-22T14:31:24;11.80;99.90
54082;DHT22;39986;50.770;0.266;2023-03-22T14:33:51;11.70;99.90
54082;DHT22;39986;50.770;0.266;2023-03-22T14:36:18;11.80;99.90
54082;DHT22;39986;50.770;0.266;2023-03-22T14:38:45;11.80;99.90
54082;DHT22;39986;50.770;0.266;2023-03-22T14:41:19;11.90;99.90
54082;DHT22;39986;50.770;0.266;2023-03-22T14:43:46;12.00;99.90
54082;DHT22;39986;50.770;0.266;2023-03-22T14:46:13;12.00;99.90
54082;DHT22;39986;50.770;0.266;2023-03-22T14:48:39;12.10;99.90
54082;DHT22;39986;50.770;0.266;2023-03-22T14:51:07;11.90;99.90
54082;DHT22;39986;50.770;0.266;2023-03-22T14:53:38;11.90;99.90
54082;DHT22;39986;50.770;0.266;2023-03-22T14:56:09;11.90;99.90
54082;DHT22;39986;50.770;0.266;2023-03-22T14:58:36;11.90;99.90
54082;DHT22;39986;50.770;0.266;2023-03-22T15:01:04;11.80;99.90
54082;DHT22;39986;50.770;0.266;2023-03-22T15:03:32;11.80;99.90
54082;DHT22;39986;50.770;0.266;2023-03-22T15:05:58;11.60;99.90
54082;DHT22;39986;50.770;0.266;2023-03-22T15:08:25;11.70;99.90
54082;DHT22;39986;50.770;0.266;2023-03-22T15:10:58;11.60;99.90
54082;DHT22;39986;50.770;0.266;2023-03-22T15:13:27;11.70;99.90
54082;DHT22;39986;50.770;0.266;2023-03-22T15:15:53;11.70;99.90
54082;DHT22;39986;50.770;0.266;2023-03-22T15:18:20;11.70;99.90
54082;DHT22;39986;50.770;0.266;2023-03-22T15:20:46;11.70;99.90
54082;DHT22;39986;50.770;0.266;2023-03-22T15:25:38;11.70;99.90
54082;DHT22;39986;50.770;0.266;2023-03-22T15:28:07;11.80;99.90
54082;DHT22;39986;50.770;0.266;2023-03-22T15:30:34;11.70;99.90
54082;DHT22;39986;50.770;0.266;2023-03-22T15:33:04;11.70;99.90
54082;DHT22;39986;50.770;0.266;2023-03-22T15:35:30;11.60;99.90
54082;DHT22;39986;50.770;0.266;2023-03-22T15:37:56;11.60;99.90
54082;DHT22;39986;50.770;0.266;2023-03-22T15:43:04;11.40;99.90
54082;DHT22;39986;50.770;0.266;2023-03-22T15:45:30;11.40;99.90
54082;DHT22;39986;50.770;0.266;2023-03-22T15:50:54;11.30;99.90
54082;DHT22;39986;50.770;0.266;2023-03-22T15:53:29;11.20;99.90
54082;DHT22;39986;50.770;0.266;2023-03-22T15:55:55;11.10;99.90
54082;DHT22;39986;50.770;0.266;2023-03-22T15:58:31;11.10;99.90
54082;DHT22;39986;50.770;0.266;2023-03-22T16:01:17;11.00;99.90
54082;DHT22;39986;50.770;0.266;2023-03-22T16:03:44;11.00;99.90
54082;DHT22;39986;50.770;0.266;2023-03-22T16:06:11;11.00;99.90
54082;DHT22;39986;50.770;0.266;2023-03-22T16:08:37;10.90;99.90
54082;DHT22;39986;50.770;0.266;2023-03-22T16:11:03;11.00;99.90
54082;DHT22;39986;50.770;0.266;2023-03-22T16:13:28;11.00;99.90
54082;DHT22;39986;50.770;0.266;2023-03-22T16:15:54;11.00;99.90
54082;DHT22;39986;50.770;0.266;2023-03-22T16:18:21;11.10;99.90
54082;DHT22;39986;50.770;0.266;2023-03-22T16:20:47;11.10;99.90
54082;DHT22;39986;50.770;0.266;2023-03-22T16:23:16;11.10;99.90
54082;DHT22;39986;50.770;0.266;2023-03-22T16:25:43;11.00;99.90
54082;DHT22;39986;50.770;0.266;2023-03-22T16:28:09;11.00;99.90
54082;DHT22;39986;50.770;0.266;2023-03-22T16:30:38;11.00;99.90
54082;DHT22;39986;50.770;0.266;2023-03-22T16:33:04;10.90;99.90
54082;DHT22;39986;50.770;0.266;2023-03-22T16:35:30;10.90;99.90
54082;DHT22;39986;50.770;0.266;2023-03-22T16:37:56;10.90;99.90
54082;DHT22;39986;50.770;0.266;2023-03-22T16:40:22;10.90;99.90
54082;DHT22;39986;50.770;0.266;2023-03-22T16:42:50;11.00;99.90
54082;DHT22;39986;50.770;0.266;2023-03-22T16:45:28;10.90;99.90
54082;DHT22;39986;50.770;0.266;2023-03-22T16:47:55;10.90;99.90
54082;DHT22;39986;50.770;0.266;2023-03-22T16:50:21;11.00;99.90
54082;DHT22;39986;50.770;0.266;2023-03-22T16:52:47;10.90;99.90
54082;DHT22;39986;50.770;0.266;2023-03-22T16:55:15;10.90;99.90
54082;DHT22;39986;50.770;0.266;2023-03-22T16:57:41;10.90;99.90
54082;DHT22;39986;50.770;0.266;2023-03-22T17:00:06;10.90;99.90
54082;DHT22;39986;50.770;0.266;2023-03-22T17:02:33;10.90;99.90
54082;DHT22;39986;50.770;0.266;2023-03-22T17:04:59;10.80;99.90
54082;DHT22;39986;50.770;0.266;2023-03-22T17:07:27;10.80;99.90